CYWL

Williams Lake Airport

Williams Lake, British Columbia, Canada
METAR CYWL 240700Z 18004KT 130V210 15SM SCT130 20/M04 A2974 RMK AC3 SLP059 DENSITY ALT 4600FT
Observed Flight Rules
May-24 @ 07:00 UTC (60 minutes ago) Visual Flight Rules
Wind Visibility Clouds
180° at 4 knots 15 miles
  • Scattered at 13,000' AGL
Temperatures Readings
Current 20°C / 68°F
Dewpoint -4°C / 25°F
Humidity 20%
Altimeter 29.74" Hg
Pressure 1005.9 hPa
Elevation 940
METAR CYWL 240700Z 18004KT 130V210 15SM SCT130 20/M04 A2974 RMK AC3 SLP059 DENSITY ALT 4600FT
Observed Flight Rules
May-24 @ 07:00 UTC
(60 minutes ago)
VFR
Wind Visibility
180° at 4 knots 15 miles
Clouds
  • Scattered at 13,000' AGL
Temperature Dewpoint
20°C / 68°F -4°C / 25°F
Humidity Altimeter Pressure
20% 29.74" Hg 1005.9 hPa